sensor_id;sensor_type;location;lat;lon;timestamp;P1;durP1;ratioP1;P2;durP2;ratioP2
40939;SDS011;26666;50.156;7.700;2022-09-01T00:00:10;2.28;;;1.25;;
40939;SDS011;26666;50.156;7.700;2022-09-01T00:05:13;1.10;;;0.82;;
40939;SDS011;26666;50.156;7.700;2022-09-01T00:10:15;3.25;;;1.38;;
40939;SDS011;26666;50.156;7.700;2022-09-01T00:15:17;2.03;;;1.00;;
40939;SDS011;26666;50.156;7.700;2022-09-01T00:20:18;1.33;;;0.88;;
40939;SDS011;26666;50.156;7.700;2022-09-01T00:25:21;5.30;;;1.23;;
40939;SDS011;26666;50.156;7.700;2022-09-01T00:30:23;3.88;;;1.10;;
40939;SDS011;26666;50.156;7.700;2022-09-01T00:35:25;3.13;;;1.67;;
40939;SDS011;26666;50.156;7.700;2022-09-01T00:40:27;1.08;;;0.98;;
40939;SDS011;26666;50.156;7.700;2022-09-01T00:45:28;1.23;;;0.85;;
40939;SDS011;26666;50.156;7.700;2022-09-01T00:50:30;0.95;;;0.80;;
40939;SDS011;26666;50.156;7.700;2022-09-01T00:55:33;0.98;;;0.93;;
40939;SDS011;26666;50.156;7.700;2022-09-01T01:00:37;1.88;;;1.02;;
40939;SDS011;26666;50.156;7.700;2022-09-01T01:05:43;1.38;;;1.08;;
40939;SDS011;26666;50.156;7.700;2022-09-01T01:10:49;1.75;;;1.00;;
40939;SDS011;26666;50.156;7.700;2022-09-01T01:15:50;4.10;;;1.50;;
40939;SDS011;26666;50.156;7.700;2022-09-01T01:21:02;1.90;;;1.13;;
40939;SDS011;26666;50.156;7.700;2022-09-01T01:26:07;1.15;;;1.08;;
40939;SDS011;26666;50.156;7.700;2022-09-01T01:31:11;2.83;;;0.93;;
40939;SDS011;26666;50.156;7.700;2022-09-01T01:36:26;2.08;;;1.17;;
40939;SDS011;26666;50.156;7.700;2022-09-01T01:41:30;3.30;;;1.17;;
40939;SDS011;26666;50.156;7.700;2022-09-01T01:46:34;2.70;;;1.30;;
40939;SDS011;26666;50.156;7.700;2022-09-01T01:51:37;1.58;;;1.10;;
40939;SDS011;26666;50.156;7.700;2022-09-01T01:56:39;2.17;;;1.13;;
40939;SDS011;26666;50.156;7.700;2022-09-01T02:01:44;1.52;;;1.08;;
40939;SDS011;26666;50.156;7.700;2022-09-01T02:11:48;2.03;;;0.95;;
40939;SDS011;26666;50.156;7.700;2022-09-01T02:16:50;1.55;;;1.05;;
40939;SDS011;26666;50.156;7.700;2022-09-01T02:21:52;0.93;;;0.88;;
40939;SDS011;26666;50.156;7.700;2022-09-01T02:26:54;1.10;;;0.80;;
40939;SDS011;26666;50.156;7.700;2022-09-01T02:31:55;1.33;;;1.15;;
40939;SDS011;26666;50.156;7.700;2022-09-01T02:36:57;2.80;;;1.02;;
40939;SDS011;26666;50.156;7.700;2022-09-01T02:41:59;4.22;;;0.95;;
40939;SDS011;26666;50.156;7.700;2022-09-01T02:47:00;4.97;;;1.13;;
40939;SDS011;26666;50.156;7.700;2022-09-01T02:52:03;1.00;;;0.88;;
40939;SDS011;26666;50.156;7.700;2022-09-01T02:57:04;0.95;;;0.80;;
40939;SDS011;26666;50.156;7.700;2022-09-01T03:02:06;4.13;;;0.90;;
40939;SDS011;26666;50.156;7.700;2022-09-01T03:07:08;1.17;;;1.10;;
40939;SDS011;26666;50.156;7.700;2022-09-01T03:12:09;4.28;;;1.70;;
40939;SDS011;26666;50.156;7.700;2022-09-01T03:17:11;0.82;;;0.82;;
40939;SDS011;26666;50.156;7.700;2022-09-01T03:22:12;0.95;;;0.90;;
40939;SDS011;26666;50.156;7.700;2022-09-01T03:27:14;0.75;;;0.75;;
40939;SDS011;26666;50.156;7.700;2022-09-01T03:32:15;0.77;;;0.73;;
40939;SDS011;26666;50.156;7.700;2022-09-01T03:37:17;0.82;;;0.82;;
40939;SDS011;26666;50.156;7.700;2022-09-01T03:42:18;0.93;;;0.85;;
40939;SDS011;26666;50.156;7.700;2022-09-01T03:47:20;1.10;;;0.88;;
40939;SDS011;26666;50.156;7.700;2022-09-01T03:52:21;0.85;;;0.73;;
40939;SDS011;26666;50.156;7.700;2022-09-01T03:57:23;2.20;;;1.27;;
40939;SDS011;26666;50.156;7.700;2022-09-01T04:02:25;0.60;;;0.60;;
40939;SDS011;26666;50.156;7.700;2022-09-01T04:07:27;1.25;;;0.70;;
40939;SDS011;26666;50.156;7.700;2022-09-01T04:12:28;1.60;;;0.60;;
40939;SDS011;26666;50.156;7.700;2022-09-01T04:17:30;0.57;;;0.57;;
40939;SDS011;26666;50.156;7.700;2022-09-01T04:22:32;1.95;;;0.80;;
40939;SDS011;26666;50.156;7.700;2022-09-01T04:27:33;0.60;;;0.52;;
40939;SDS011;26666;50.156;7.700;2022-09-01T04:32:38;0.70;;;0.70;;
40939;SDS011;26666;50.156;7.700;2022-09-01T04:37:40;4.03;;;0.90;;
40939;SDS011;26666;50.156;7.700;2022-09-01T04:42:41;1.95;;;0.80;;
40939;SDS011;26666;50.156;7.700;2022-09-01T04:47:43;0.80;;;0.73;;
40939;SDS011;26666;50.156;7.700;2022-09-01T04:52:44;0.43;;;0.43;;
40939;SDS011;26666;50.156;7.700;2022-09-01T04:57:47;4.20;;;0.60;;
40939;SDS011;26666;50.156;7.700;2022-09-01T05:08:01;0.85;;;0.85;;
40939;SDS011;26666;50.156;7.700;2022-09-01T05:13:02;0.57;;;0.50;;
40939;SDS011;26666;50.156;7.700;2022-09-01T05:18:04;0.82;;;0.65;;
40939;SDS011;26666;50.156;7.700;2022-09-01T05:23:07;1.83;;;0.80;;
40939;SDS011;26666;50.156;7.700;2022-09-01T05:28:10;0.65;;;0.52;;
40939;SDS011;26666;50.156;7.700;2022-09-01T05:33:13;4.68;;;0.80;;
40939;SDS011;26666;50.156;7.700;2022-09-01T05:38:21;0.75;;;0.75;;
40939;SDS011;26666;50.156;7.700;2022-09-01T05:43:23;1.13;;;0.40;;
40939;SDS011;26666;50.156;7.700;2022-09-01T05:48:25;0.88;;;0.50;;
40939;SDS011;26666;50.156;7.700;2022-09-01T05:53:27;0.22;;;0.22;;
40939;SDS011;26666;50.156;7.700;2022-09-01T05:58:28;1.15;;;0.52;;
40939;SDS011;26666;50.156;7.700;2022-09-01T06:03:54;0.20;;;0.20;;
40939;SDS011;26666;50.156;7.700;2022-09-01T06:08:56;0.30;;;0.30;;
40939;SDS011;26666;50.156;7.700;2022-09-01T06:13:59;0.77;;;0.40;;
40939;SDS011;26666;50.156;7.700;2022-09-01T06:19:01;3.60;;;0.10;;
40939;SDS011;26666;50.156;7.700;2022-09-01T06:24:03;1.15;;;0.20;;
40939;SDS011;26666;50.156;7.700;2022-09-01T06:29:06;0.63;;;0.17;;
40939;SDS011;26666;50.156;7.700;2022-09-01T06:39:11;2.38;;;0.32;;
40939;SDS011;26666;50.156;7.700;2022-09-01T06:44:13;3.03;;;0.20;;
40939;SDS011;26666;50.156;7.700;2022-09-01T06:49:14;2.05;;;0.17;;
40939;SDS011;26666;50.156;7.700;2022-09-01T06:54:16;0.20;;;0.20;;
40939;SDS011;26666;50.156;7.700;2022-09-01T06:59:21;0.10;;;0.10;;
40939;SDS011;26666;50.156;7.700;2022-09-01T07:04:22;0.45;;;0.10;;
40939;SDS011;26666;50.156;7.700;2022-09-01T07:09:26;0.10;;;0.10;;
40939;SDS011;26666;50.156;7.700;2022-09-01T07:14:47;0.50;;;0.10;;
40939;SDS011;26666;50.156;7.700;2022-09-01T07:20:09;0.75;;;0.35;;
40939;SDS011;26666;50.156;7.700;2022-09-01T07:25:26;0.40;;;0.13;;
40939;SDS011;26666;50.156;7.700;2022-09-01T07:30:49;2.00;;;0.15;;
40939;SDS011;26666;50.156;7.700;2022-09-01T07:35:52;3.00;;;0.38;;
40939;SDS011;26666;50.156;7.700;2022-09-01T07:41:14;0.20;;;0.00;;
40939;SDS011;26666;50.156;7.700;2022-09-01T07:46:35;0.00;;;0.00;;
40939;SDS011;26666;50.156;7.700;2022-09-01T07:51:37;0.10;;;0.10;;
40939;SDS011;26666;50.156;7.700;2022-09-01T07:56:39;0.82;;;0.15;;
40939;SDS011;26666;50.156;7.700;2022-09-01T08:01:41;0.52;;;0.10;;
40939;SDS011;26666;50.156;7.700;2022-09-01T08:06:43;0.77;;;0.20;;
40939;SDS011;26666;50.156;7.700;2022-09-01T08:11:45;1.85;;;0.10;;
40939;SDS011;26666;50.156;7.700;2022-09-01T08:17:03;4.82;;;0.10;;
40939;SDS011;26666;50.156;7.700;2022-09-01T08:22:25;0.30;;;0.30;;
40939;SDS011;26666;50.156;7.700;2022-09-01T08:27:27;0.15;;;0.08;;
40939;SDS011;26666;50.156;7.700;2022-09-01T08:32:29;0.43;;;0.10;;
40939;SDS011;26666;50.156;7.700;2022-09-01T08:37:31;0.47;;;0.30;;
40939;SDS011;26666;50.156;7.700;2022-09-01T08:42:39;1.95;;;0.15;;
40939;SDS011;26666;50.156;7.700;2022-09-01T08:47:51;0.55;;;0.20;;
40939;SDS011;26666;50.156;7.700;2022-09-01T08:58:29;1.65;;;0.10;;
40939;SDS011;26666;50.156;7.700;2022-09-01T09:03:38;0.35;;;0.10;;
40939;SDS011;26666;50.156;7.700;2022-09-01T09:08:51;0.10;;;0.10;;
40939;SDS011;26666;50.156;7.700;2022-09-01T09:24:36;1.50;;;0.10;;
40939;SDS011;26666;50.156;7.700;2022-09-01T09:29:50;0.20;;;0.20;;
40939;SDS011;26666;50.156;7.700;2022-09-01T09:34:58;0.30;;;0.10;;
40939;SDS011;26666;50.156;7.700;2022-09-01T09:45:27;2.72;;;0.20;;
40939;SDS011;26666;50.156;7.700;2022-09-01T09:50:34;2.50;;;0.30;;
40939;SDS011;26666;50.156;7.700;2022-09-01T09:55:53;1.05;;;0.52;;
40939;SDS011;26666;50.156;7.700;2022-09-01T10:00:58;0.88;;;0.85;;
40939;SDS011;26666;50.156;7.700;2022-09-01T10:06:11;0.30;;;0.30;;
40939;SDS011;26666;50.156;7.700;2022-09-01T10:11:25;0.73;;;0.43;;
40939;SDS011;26666;50.156;7.700;2022-09-01T10:16:41;0.40;;;0.30;;
40939;SDS011;26666;50.156;7.700;2022-09-01T10:21:48;1.23;;;0.35;;
40939;SDS011;26666;50.156;7.700;2022-09-01T10:26:50;1.15;;;0.35;;
40939;SDS011;26666;50.156;7.700;2022-09-01T10:31:54;1.90;;;0.50;;
40939;SDS011;26666;50.156;7.700;2022-09-01T10:37:16;0.40;;;0.40;;
40939;SDS011;26666;50.156;7.700;2022-09-01T10:42:18;0.25;;;0.10;;
40939;SDS011;26666;50.156;7.700;2022-09-01T10:47:23;1.45;;;0.20;;
40939;SDS011;26666;50.156;7.700;2022-09-01T10:57:54;0.35;;;0.35;;
40939;SDS011;26666;50.156;7.700;2022-09-01T11:13:40;0.30;;;0.30;;
40939;SDS011;26666;50.156;7.700;2022-09-01T11:18:50;0.28;;;0.20;;
40939;SDS011;26666;50.156;7.700;2022-09-01T11:34:56;0.75;;;0.10;;
40939;SDS011;26666;50.156;7.700;2022-09-01T11:40:03;0.38;;;0.17;;
40939;SDS011;26666;50.156;7.700;2022-09-01T11:45:15;0.68;;;0.32;;
40939;SDS011;26666;50.156;7.700;2022-09-01T11:50:33;3.33;;;0.20;;
40939;SDS011;26666;50.156;7.700;2022-09-01T11:55:40;0.30;;;0.30;;
40939;SDS011;26666;50.156;7.700;2022-09-01T12:00:46;0.60;;;0.60;;
40939;SDS011;26666;50.156;7.700;2022-09-01T12:05:49;8.80;;;0.40;;
40939;SDS011;26666;50.156;7.700;2022-09-01T12:11:07;0.40;;;0.30;;
40939;SDS011;26666;50.156;7.700;2022-09-01T12:16:19;0.57;;;0.20;;
40939;SDS011;26666;50.156;7.700;2022-09-01T12:26:53;4.47;;;0.20;;
40939;SDS011;26666;50.156;7.700;2022-09-01T12:31:55;3.83;;;0.28;;
40939;SDS011;26666;50.156;7.700;2022-09-01T12:37:02;0.28;;;0.28;;
40939;SDS011;26666;50.156;7.700;2022-09-01T12:42:11;0.10;;;0.10;;
40939;SDS011;26666;50.156;7.700;2022-09-01T12:52:35;0.82;;;0.10;;
40939;SDS011;26666;50.156;7.700;2022-09-01T12:57:46;0.20;;;0.20;;
40939;SDS011;26666;50.156;7.700;2022-09-01T13:08:03;2.83;;;0.20;;
40939;SDS011;26666;50.156;7.700;2022-09-01T13:13:08;0.63;;;0.30;;
40939;SDS011;26666;50.156;7.700;2022-09-01T13:18:11;0.20;;;0.20;;
40939;SDS011;26666;50.156;7.700;2022-09-01T13:23:12;0.30;;;0.30;;
40939;SDS011;26666;50.156;7.700;2022-09-01T13:28:15;0.47;;;0.28;;
40939;SDS011;26666;50.156;7.700;2022-09-01T13:33:17;2.33;;;0.52;;
40939;SDS011;26666;50.156;7.700;2022-09-01T13:38:20;0.17;;;0.15;;
40939;SDS011;26666;50.156;7.700;2022-09-01T13:43:22;0.32;;;0.32;;
40939;SDS011;26666;50.156;7.700;2022-09-01T13:48:24;3.70;;;0.40;;
40939;SDS011;26666;50.156;7.700;2022-09-01T13:53:46;0.60;;;0.20;;
40939;SDS011;26666;50.156;7.700;2022-09-01T13:58:47;2.83;;;0.20;;
40939;SDS011;26666;50.156;7.700;2022-09-01T14:03:49;0.40;;;0.32;;
40939;SDS011;26666;50.156;7.700;2022-09-01T14:08:52;0.22;;;0.20;;
40939;SDS011;26666;50.156;7.700;2022-09-01T14:13:54;6.97;;;0.45;;
40939;SDS011;26666;50.156;7.700;2022-09-01T14:18:55;4.13;;;0.22;;
40939;SDS011;26666;50.156;7.700;2022-09-01T14:23:57;2.75;;;0.47;;
40939;SDS011;26666;50.156;7.700;2022-09-01T14:28:58;8.52;;;1.38;;
40939;SDS011;26666;50.156;7.700;2022-09-01T14:34:00;0.68;;;0.30;;
40939;SDS011;26666;50.156;7.700;2022-09-01T14:39:01;2.35;;;0.13;;
40939;SDS011;26666;50.156;7.700;2022-09-01T14:44:03;0.10;;;0.10;;
40939;SDS011;26666;50.156;7.700;2022-09-01T14:49:04;0.43;;;0.30;;
40939;SDS011;26666;50.156;7.700;2022-09-01T14:54:06;0.45;;;0.25;;
40939;SDS011;26666;50.156;7.700;2022-09-01T14:59:08;1.25;;;0.17;;
40939;SDS011;26666;50.156;7.700;2022-09-01T15:04:09;0.52;;;0.20;;
40939;SDS011;26666;50.156;7.700;2022-09-01T15:09:11;2.13;;;0.30;;
40939;SDS011;26666;50.156;7.700;2022-09-01T15:14:18;1.48;;;0.40;;
40939;SDS011;26666;50.156;7.700;2022-09-01T15:19:20;3.40;;;0.20;;
40939;SDS011;26666;50.156;7.700;2022-09-01T15:24:21;4.85;;;0.22;;
40939;SDS011;26666;50.156;7.700;2022-09-01T15:29:23;2.55;;;0.47;;
40939;SDS011;26666;50.156;7.700;2022-09-01T15:34:24;0.40;;;0.20;;
40939;SDS011;26666;50.156;7.700;2022-09-01T15:39:25;0.22;;;0.10;;
40939;SDS011;26666;50.156;7.700;2022-09-01T15:44:38;0.10;;;0.10;;
40939;SDS011;26666;50.156;7.700;2022-09-01T15:49:40;0.40;;;0.40;;
40939;SDS011;26666;50.156;7.700;2022-09-01T15:54:41;0.20;;;0.17;;
40939;SDS011;26666;50.156;7.700;2022-09-01T15:59:43;12.35;;;0.73;;
40939;SDS011;26666;50.156;7.700;2022-09-01T16:04:45;0.68;;;0.68;;
40939;SDS011;26666;50.156;7.700;2022-09-01T16:09:47;0.68;;;0.40;;
40939;SDS011;26666;50.156;7.700;2022-09-01T16:14:49;0.63;;;0.10;;
40939;SDS011;26666;50.156;7.700;2022-09-01T16:19:52;0.90;;;0.25;;
40939;SDS011;26666;50.156;7.700;2022-09-01T16:25:01;0.17;;;0.17;;
40939;SDS011;26666;50.156;7.700;2022-09-01T16:30:13;0.20;;;0.20;;
40939;SDS011;26666;50.156;7.700;2022-09-01T16:35:19;1.33;;;0.28;;
40939;SDS011;26666;50.156;7.700;2022-09-01T16:46:17;0.65;;;0.20;;
40939;SDS011;26666;50.156;7.700;2022-09-01T16:56:51;1.10;;;0.32;;
40939;SDS011;26666;50.156;7.700;2022-09-01T17:12:52;0.17;;;0.15;;
40939;SDS011;26666;50.156;7.700;2022-09-01T17:23:06;1.38;;;0.75;;
40939;SDS011;26666;50.156;7.700;2022-09-01T17:28:15;0.30;;;0.30;;
40939;SDS011;26666;50.156;7.700;2022-09-01T17:33:33;0.10;;;0.10;;
40939;SDS011;26666;50.156;7.700;2022-09-01T17:44:09;0.38;;;0.20;;
40939;SDS011;26666;50.156;7.700;2022-09-01T17:49:37;6.95;;;0.40;;
40939;SDS011;26666;50.156;7.700;2022-09-01T17:54:54;2.10;;;0.20;;
40939;SDS011;26666;50.156;7.700;2022-09-01T18:00:04;2.67;;;0.30;;
40939;SDS011;26666;50.156;7.700;2022-09-01T18:05:16;0.38;;;0.35;;
40939;SDS011;26666;50.156;7.700;2022-09-01T18:10:45;0.10;;;0.10;;
40939;SDS011;26666;50.156;7.700;2022-09-01T18:15:51;0.30;;;0.30;;
40939;SDS011;26666;50.156;7.700;2022-09-01T18:21:08;0.90;;;0.50;;
40939;SDS011;26666;50.156;7.700;2022-09-01T18:26:23;0.22;;;0.20;;
40939;SDS011;26666;50.156;7.700;2022-09-01T18:47:13;4.35;;;0.35;;
40939;SDS011;26666;50.156;7.700;2022-09-01T18:52:39;3.80;;;0.40;;
40939;SDS011;26666;50.156;7.700;2022-09-01T18:57:43;0.20;;;0.20;;
40939;SDS011;26666;50.156;7.700;2022-09-01T19:02:54;0.22;;;0.22;;
40939;SDS011;26666;50.156;7.700;2022-09-01T19:18:43;0.50;;;0.30;;
40939;SDS011;26666;50.156;7.700;2022-09-01T19:23:57;0.28;;;0.28;;
40939;SDS011;26666;50.156;7.700;2022-09-01T19:29:05;3.72;;;0.20;;
40939;SDS011;26666;50.156;7.700;2022-09-01T19:34:15;0.38;;;0.32;;
40939;SDS011;26666;50.156;7.700;2022-09-01T19:39:20;0.68;;;0.40;;
40939;SDS011;26666;50.156;7.700;2022-09-01T19:55:19;0.68;;;0.22;;
40939;SDS011;26666;50.156;7.700;2022-09-01T20:06:11;0.88;;;0.30;;
40939;SDS011;26666;50.156;7.700;2022-09-01T20:11:27;0.20;;;0.20;;
40939;SDS011;26666;50.156;7.700;2022-09-01T20:16:50;0.57;;;0.20;;
40939;SDS011;26666;50.156;7.700;2022-09-01T20:22:01;0.95;;;0.28;;
40939;SDS011;26666;50.156;7.700;2022-09-01T20:37:59;4.15;;;0.40;;
40939;SDS011;26666;50.156;7.700;2022-09-01T20:43:25;0.73;;;0.52;;
40939;SDS011;26666;50.156;7.700;2022-09-01T20:58:43;0.20;;;0.20;;
40939;SDS011;26666;50.156;7.700;2022-09-01T21:09:00;0.52;;;0.32;;
40939;SDS011;26666;50.156;7.700;2022-09-01T21:24:50;1.08;;;0.30;;
40939;SDS011;26666;50.156;7.700;2022-09-01T21:29:59;0.25;;;0.20;;
40939;SDS011;26666;50.156;7.700;2022-09-01T21:35:04;0.70;;;0.40;;
40939;SDS011;26666;50.156;7.700;2022-09-01T21:40:08;0.45;;;0.30;;
40939;SDS011;26666;50.156;7.700;2022-09-01T21:45:12;0.40;;;0.30;;
40939;SDS011;26666;50.156;7.700;2022-09-01T21:50:15;0.63;;;0.30;;
40939;SDS011;26666;50.156;7.700;2022-09-01T21:55:19;0.30;;;0.20;;
40939;SDS011;26666;50.156;7.700;2022-09-01T22:00:27;1.77;;;0.47;;
40939;SDS011;26666;50.156;7.700;2022-09-01T22:05:30;5.05;;;0.20;;
40939;SDS011;26666;50.156;7.700;2022-09-01T22:10:32;0.43;;;0.30;;
40939;SDS011;26666;50.156;7.700;2022-09-01T22:15:38;0.40;;;0.40;;
40939;SDS011;26666;50.156;7.700;2022-09-01T22:20:42;0.30;;;0.30;;
40939;SDS011;26666;50.156;7.700;2022-09-01T22:25:45;3.70;;;0.43;;
40939;SDS011;26666;50.156;7.700;2022-09-01T22:30:48;1.00;;;0.43;;
40939;SDS011;26666;50.156;7.700;2022-09-01T22:35:51;0.40;;;0.40;;
40939;SDS011;26666;50.156;7.700;2022-09-01T22:40:55;0.45;;;0.40;;
40939;SDS011;26666;50.156;7.700;2022-09-01T22:45:57;1.13;;;0.30;;
40939;SDS011;26666;50.156;7.700;2022-09-01T22:51:02;0.57;;;0.45;;
40939;SDS011;26666;50.156;7.700;2022-09-01T22:56:14;2.22;;;0.63;;
40939;SDS011;26666;50.156;7.700;2022-09-01T23:01:21;0.22;;;0.22;;
40939;SDS011;26666;50.156;7.700;2022-09-01T23:06:27;0.45;;;0.40;;
40939;SDS011;26666;50.156;7.700;2022-09-01T23:11:29;1.45;;;0.20;;
40939;SDS011;26666;50.156;7.700;2022-09-01T23:16:31;0.35;;;0.20;;
40939;SDS011;26666;50.156;7.700;2022-09-01T23:21:34;0.70;;;0.40;;
40939;SDS011;26666;50.156;7.700;2022-09-01T23:26:36;0.20;;;0.20;;
40939;SDS011;26666;50.156;7.700;2022-09-01T23:31:38;0.65;;;0.28;;
40939;SDS011;26666;50.156;7.700;2022-09-01T23:36:40;5.47;;;0.40;;
40939;SDS011;26666;50.156;7.700;2022-09-01T23:41:41;1.02;;;0.20;;
40939;SDS011;26666;50.156;7.700;2022-09-01T23:46:44;0.73;;;0.22;;
40939;SDS011;26666;50.156;7.700;2022-09-01T23:51:47;2.92;;;0.80;;
40939;SDS011;26666;50.156;7.700;2022-09-01T23:56:49;2.60;;;0.30;;
